createdAt,value
2018-06-02T10:05:48.377Z,8052.0
2018-06-02T10:17:08.844Z,7008.0
2018-06-02T10:27:23.520Z,3396.0
2018-06-02T10:37:37.407Z,7564.0
2018-06-02T10:48:07.105Z,1620.0
2018-06-02T10:58:21.297Z,3864.0
2018-06-02T11:08:35.412Z,3444.0
2018-06-02T11:18:49.360Z,4712.0
2018-06-02T11:29:35.382Z,13192.0
2018-06-02T11:40:20.957Z,16608.0
2018-06-02T11:51:51.197Z,10412.0
2018-06-02T12:02:07.292Z,8008.0
2018-06-02T12:12:22.200Z,10424.0
2018-06-02T12:22:36.750Z,12572.0
2018-06-02T12:33:21.893Z,8912.0
2018-06-02T12:44:06.686Z,10516.0
2018-06-02T12:54:55.541Z,16992.0
2018-06-02T13:05:09.638Z,13492.0
2018-06-02T13:15:24.408Z,14544.0
2018-06-02T13:25:54.221Z,30848.0
2018-06-02T13:46:29.782Z,6744.0
2018-06-02T13:56:43.139Z,10284.0
2018-06-02T14:07:27.960Z,6952.0
2018-06-02T14:18:56.225Z,6624.0
2018-06-02T14:30:09.769Z,7104.0
2018-06-02T14:40:23.972Z,10536.0
2018-06-02T14:50:37.956Z,8908.0
2018-06-02T15:17:02.459Z,10704.0
2018-06-02T15:27:48.237Z,14224.0
2018-06-02T15:38:03.460Z,7068.0
2018-06-02T16:02:12.167Z,8824.0
2018-06-02T16:13:02.039Z,8688.0
2018-06-02T16:24:18.042Z,6824.0
2018-06-02T16:34:32.843Z,5788.0
2018-06-02T16:58:58.227Z,5760.0
2018-06-02T17:09:13.180Z,5736.0
2018-06-02T17:30:48.811Z,3584.0
2018-06-02T18:12:50.413Z,1756.0
2018-06-02T18:36:09.793Z,1316.0
2018-06-02T18:48:25.932Z,1000.0
2018-06-02T19:01:19.795Z,708.0
2018-06-02T19:13:32.238Z,536.0
2018-06-02T19:27:12.021Z,268.0
2018-06-02T20:10:17.354Z,4.0
2018-06-02T20:20:33.255Z,4.0
2018-06-02T20:30:47.163Z,0.0
2018-06-02T20:42:18.423Z,0.0
2018-06-02T20:53:08.272Z,0.0
2018-06-02T21:03:53.613Z,0.0
2018-06-02T21:14:39.645Z,0.0
2018-06-02T21:25:24.358Z,0.0
2018-06-02T21:35:38.881Z,0.0
2018-06-02T21:45:53.674Z,0.0
2018-06-02T21:57:16.026Z,0.0
2018-06-02T22:08:01.543Z,0.0
2018-06-02T22:18:46.383Z,0.0
2018-06-02T22:29:31.341Z,0.0
2018-06-02T22:40:16.002Z,0.0
2018-06-02T22:51:00.723Z,0.0
2018-06-02T23:01:51.733Z,0.0
2018-06-02T23:12:05.836Z,0.0
2018-06-02T23:22:52.777Z,0.0
2018-06-02T23:33:37.702Z,0.0
2018-06-02T23:43:51.735Z,0.0
2018-06-02T23:54:05.879Z,0.0
